YMEK

Details ICAO YMEK (MKR)
Name Meekatharra
Region Australia
Timezone Australia/Perth (UTC+8.0)
Plans Departing 1
Arriving 3
Stats Elevation 1,713 ft / 522 m (AMSL)
Location -26.610631° 118.549259°
Runways 2
Magnetic Variation 0.621° E
Sunrise 2017-12-16 21:09:01 UTC / 2017-12-17 05:09:01 Local
Sunset 2017-12-17 10:57:16 UTC / 2017-12-17 18:57:16 Local
Advertisement - Login to hide

Runways

ID Width Length Bearing (true) Bearing (mag) Surface Threshold Offset Overrun Length
09 98 ft / 30 m 7,144 ft / 2,178 m 84.80° 84.18° Asphalt 0 ft / 0 m 112 ft / 34 m
15 269 ft / 82 m 3,910 ft / 1,192 m 139.11° 138.49° Dirt 0 ft / 0 m 0 ft / 0 m
27 98 ft / 30 m 7,144 ft / 2,178 m 264.80° 264.18° Asphalt 0 ft / 0 m 102 ft / 31 m
33 269 ft / 82 m 3,910 ft / 1,192 m 319.11° 318.49° Dirt 0 ft / 0 m 0 ft / 0 m

Map

Weather


0- 5 10 15 20 25 30 35+ Temperature / ° C

Clouds and Precipitation
Forecast for 2017-12-17 06:00 UTC. Updated 2 hours ago

Ground ~20,000 ft ~40,000 ft Winds

METAR

YMEK 170600Z AUTO 26017KT 240V300 9999 // NCD 31/01 Q1006

TAF

Not found

Frequencies

Unicom 126.70 MHz CTAF
Warning: Do not use this data for real-world aviation or navigation. No guarantee of current accuracy is given.